Aeroporto :
LOGIN :

Iscrizione | Disclaimer

   EN    FR    IT 

 










Sommario :    VFR   VFR Marginale   IFR   IFR Intensivo   IFR Molto Intensivo
Visibilità : 
Base nubi : 
>= 8 km
>= 3000ft
5 / 8 km
1000 / 3000 ft
1500m / 5 km
500 / 1000 ft
800 / 1500m
200 / 500 ft
< 800m
< 200 ft
Simboli :   Temporali  Nebbia  Neve Forte  Precipitazioni Forti  Vento > 20 kt
SIGMETs :   Varie  Temporali  Ghiacco  Turbolenza  Onda orograficha  Ceneri Vulcaniche






- Altitudine del aeroporto : 124 ft
- Codice IATA : NHT


EGWU - RAF Northolt

ULTIMO METAR :
  • 021150Z 26011KT 9999 -SHRA FEW024TCU SCT050 15/14 Q1011 TEMPO 4000 +SHRA RMK BLU TEMPO GRN

METARs OBSOLETI :
  • 021129Z 27013KT 9999 -SHRA SCT024TCU BKN050 16/14 Q1011 TEMPO 4000 +SHRA RMK WHT TEMPO GRN
  • 021120Z 27015KT 5000 SHRA SCT023TCU BKN050 16/13 Q1011 TEMPO 4000 +SHRA RMK WHT TEMPO GRN
  • 021050Z 25011KT 9999 SCT020 BKN050 18/13 Q1010 TEMPO 4000 +SHRA RMK WHT TEMPO GRN
  • 021020Z 27010KT 9999 SCT018 SCT050 16/15 Q1010 TEMPO 4000 +SHRA RMK WHT TEMPO GRN
  • 021012Z 27012KT 9999 SCT018 SCT050 15/13 Q1010 TEMPO 4000 +SHRA RMK WHT TEMPO GRN
  • 021002Z 27010KT 5000 SHRA SCT018 BKN050 16/12 Q1010 BECMG 9999 NSW RMK WHT BECMG WHT
  • 020920Z 26012KT 9999 SCT018 BKN050 16/12 Q1010 BECMG SCT025

TAF TAF EGWU
Valido dal 02 a 12 ore il 03 a 06 ore UTC


021052Z 0212/0306 25011KT 9999 SCT025
TEMPO 0212/0219 6000 SHRA SCT020
PROB30
TEMPO 0212/0216 26015G25KT 3000 +SHRA TSGS BKN020CB



MetMap, La meteo Aeronautica in un colpo d'occhio ! - Copyright ORBIFLY Dicembre 2007 - Disclaimer

ORBIFLY MET'MAP TEAM :

Programmazione e sviluppo : Alexandra Zaïnal
Concezione : Baudouin d'Aumeries
Aiuto per la programmazione : Marc-Olivier Méhu
Supporto tecnico e logistico : Manuel Goepfert
Aiuto per la traduzione : Arnaldo La Scala

Contatto : metmap@orbifly.com




FONTI E CREDITI :

   NOAA